Alton, Maine
Current Conditions -  °F | °C
As of 4:53 PM on Thursday 20 Nov 2014 (Local Time) from KBGR Reporting Station
Scattered Clouds Scattered Clouds  
Wind Chill: 29°   Ceiling: Unl
Heat Index: 35°   Visibility: 10mi
Dew Point: 17°   Wind: 7mph
Humidity: 48%   Direction: 200°SSW
Pressure: 29.73"   Gusts: NA
Location:  45.0236°N, 68.7394°W
Report Text: KBGR 202153Z 20006KT 10SM SCT070 02/M08 A2973 RMK AO2 SLP069 T00171083
Loading
Personal Weather Stations






























Interactive Weather Map New forecast layout! Learn more

10-Day Weather Forecast

Advertisements
Track Severe Weather on mobile